sensor_id;sensor_type;location;lat;lon;timestamp;pressure;altitude;pressure_sealevel;temperature;humidity
55410;BME280;41279;43.546;16.426;2023-03-21T06:57:48;117236.00;;;-146.77;100.00
55410;BME280;41279;43.546;16.426;2023-03-21T07:00:22;117233.97;;;-146.77;100.00
55410;BME280;41279;43.546;16.426;2023-03-21T07:02:48;117233.97;;;-146.77;100.00
55410;BME280;41279;43.546;16.426;2023-03-21T07:05:14;117236.00;;;-146.77;100.00
55410;BME280;41279;43.546;16.426;2023-03-21T07:07:40;117236.00;;;-146.77;100.00
55410;BME280;41279;43.546;16.426;2023-03-21T07:10:06;117236.00;;;-146.77;100.00
55410;BME280;41279;43.546;16.426;2023-03-21T07:12:32;117236.00;;;-146.77;100.00
55410;BME280;41279;43.546;16.426;2023-03-21T07:15:00;117236.00;;;-146.77;100.00
55410;BME280;41279;43.546;16.426;2023-03-21T07:17:26;117236.00;;;-146.77;100.00
55410;BME280;41279;43.546;16.426;2023-03-21T07:19:51;116452.78;;;-146.77;100.00
55410;BME280;41279;43.546;16.426;2023-03-21T07:22:17;116713.16;;;-146.77;100.00
55410;BME280;41279;43.546;16.426;2023-03-21T07:24:42;117236.00;;;-146.77;100.00
55410;BME280;41279;43.546;16.426;2023-03-21T07:27:08;117236.00;;;-146.77;100.00
55410;BME280;41279;43.546;16.426;2023-03-21T07:29:34;117236.00;;;-146.77;100.00
55410;BME280;41279;43.546;16.426;2023-03-21T07:31:59;117236.00;;;-146.77;100.00
55410;BME280;41279;43.546;16.426;2023-03-21T07:34:25;117236.00;;;-146.77;100.00
55410;BME280;41279;43.546;16.426;2023-03-21T07:36:55;117236.00;;;-146.77;100.00
55410;BME280;41279;43.546;16.426;2023-03-21T07:39:21;117236.00;;;-146.77;100.00
55410;BME280;41279;43.546;16.426;2023-03-21T07:41:48;117236.00;;;-146.77;100.00
55410;BME280;41279;43.546;16.426;2023-03-21T07:44:13;117236.00;;;-146.77;100.00
55410;BME280;41279;43.546;16.426;2023-03-21T07:46:39;117236.00;;;-146.77;100.00
55410;BME280;41279;43.546;16.426;2023-03-21T07:49:05;117236.00;;;-146.77;100.00
55410;BME280;41279;43.546;16.426;2023-03-21T07:51:30;117236.00;;;-146.77;100.00
55410;BME280;41279;43.546;16.426;2023-03-21T07:53:56;117236.00;;;-146.77;100.00
55410;BME280;41279;43.546;16.426;2023-03-21T07:56:21;117236.00;;;-146.77;100.00
55410;BME280;41279;43.546;16.426;2023-03-21T07:58:47;117236.00;;;-146.77;100.00
55410;BME280;41279;43.546;16.426;2023-03-21T08:01:12;117236.00;;;-146.77;100.00
55410;BME280;41279;43.546;16.426;2023-03-21T08:03:38;117236.00;;;-146.77;100.00
55410;BME280;41279;43.546;16.426;2023-03-21T08:06:03;117236.00;;;-146.77;100.00
55410;BME280;41279;43.546;16.426;2023-03-21T08:08:29;117236.00;;;-146.77;100.00
55410;BME280;41279;43.546;16.426;2023-03-21T08:10:55;117236.00;;;-146.77;100.00
55410;BME280;41279;43.546;16.426;2023-03-21T08:13:21;117236.00;;;-146.77;100.00
55410;BME280;41279;43.546;16.426;2023-03-21T08:15:47;117236.00;;;-146.77;100.00
55410;BME280;41279;43.546;16.426;2023-03-21T08:18:12;117236.00;;;-146.77;100.00
55410;BME280;41279;43.546;16.426;2023-03-21T08:20:38;117236.00;;;-146.77;100.00
55410;BME280;41279;43.546;16.426;2023-03-21T08:23:03;117236.00;;;-146.77;100.00
55410;BME280;41279;43.546;16.426;2023-03-21T08:25:29;117233.97;;;-146.77;100.00
55410;BME280;41279;43.546;16.426;2023-03-21T08:27:55;117236.00;;;-146.77;100.00
55410;BME280;41279;43.546;16.426;2023-03-21T08:30:22;117236.00;;;-146.77;100.00
55410;BME280;41279;43.546;16.426;2023-03-21T08:32:55;117236.00;;;-146.77;100.00
55410;BME280;41279;43.546;16.426;2023-03-21T08:35:22;117236.00;;;-146.77;100.00
55410;BME280;41279;43.546;16.426;2023-03-21T08:37:47;117236.00;;;-146.77;100.00
55410;BME280;41279;43.546;16.426;2023-03-21T08:40:15;117236.00;;;-146.77;100.00
55410;BME280;41279;43.546;16.426;2023-03-21T08:42:42;117236.00;;;-146.77;100.00
55410;BME280;41279;43.546;16.426;2023-03-21T08:45:09;117236.00;;;-146.77;100.00
55410;BME280;41279;43.546;16.426;2023-03-21T08:47:35;117236.00;;;-146.77;100.00
55410;BME280;41279;43.546;16.426;2023-03-21T08:50:00;117236.00;;;-146.77;100.00
55410;BME280;41279;43.546;16.426;2023-03-21T08:52:26;113589.66;;;-146.77;100.00
55410;BME280;41279;43.546;16.426;2023-03-21T08:54:53;108649.03;;;-146.77;100.00
55410;BME280;41279;43.546;16.426;2023-03-21T08:57:19;110728.56;;;-146.77;100.00
55410;BME280;41279;43.546;16.426;2023-03-21T08:59:44;114630.56;;;-146.77;100.00
55410;BME280;41279;43.546;16.426;2023-03-21T09:02:13;117236.00;;;-146.77;100.00
55410;BME280;41279;43.546;16.426;2023-03-21T09:04:39;117236.00;;;-146.77;100.00
55410;BME280;41279;43.546;16.426;2023-03-21T09:07:06;117236.00;;;-146.77;100.00
55410;BME280;41279;43.546;16.426;2023-03-21T09:09:32;117236.00;;;-146.77;100.00
55410;BME280;41279;43.546;16.426;2023-03-21T09:11:57;117236.00;;;-146.77;100.00
55410;BME280;41279;43.546;16.426;2023-03-21T09:14:23;117236.00;;;-146.77;100.00
55410;BME280;41279;43.546;16.426;2023-03-21T09:16:48;117236.00;;;-146.77;100.00
55410;BME280;41279;43.546;16.426;2023-03-21T09:19:16;117236.00;;;-146.77;100.00
55410;BME280;41279;43.546;16.426;2023-03-21T09:21:42;117236.00;;;-146.77;100.00
55410;BME280;41279;43.546;16.426;2023-03-21T09:24:08;117236.00;;;-146.77;100.00
55410;BME280;41279;43.546;16.426;2023-03-21T09:26:37;117236.00;;;-146.77;100.00
55410;BME280;41279;43.546;16.426;2023-03-21T09:29:03;117236.00;;;-146.77;100.00
55410;BME280;41279;43.546;16.426;2023-03-21T09:31:30;117236.00;;;-146.77;100.00
55410;BME280;41279;43.546;16.426;2023-03-21T09:33:56;117236.00;;;-146.77;100.00
55410;BME280;41279;43.546;16.426;2023-03-21T09:36:24;117236.00;;;-146.77;100.00
55410;BME280;41279;43.546;16.426;2023-03-21T09:38:52;117236.00;;;-146.77;100.00
55410;BME280;41279;43.546;16.426;2023-03-21T09:49:15;112288.94;;;-146.77;100.00
55410;BME280;41279;43.546;16.426;2023-03-21T09:51:44;109168.81;;;-146.77;100.00
55410;BME280;41279;43.546;16.426;2023-03-21T09:54:36;106570.56;;;-146.77;100.00
55410;BME280;41279;43.546;16.426;2023-03-21T09:57:17;99304.25;;;-146.77;100.00
55410;BME280;41279;43.546;16.426;2023-03-21T09:59:49;99304.25;;;-146.77;100.00
55410;BME280;41279;43.546;16.426;2023-03-21T10:02:45;100860.22;;;-146.77;100.00
55410;BME280;41279;43.546;16.426;2023-03-21T10:05:17;106051.09;;;-146.77;100.00
55410;BME280;41279;43.546;16.426;2023-03-21T10:07:49;105272.03;;;-146.77;100.00
55410;BME280;41279;43.546;16.426;2023-03-21T10:10:27;98526.47;;;-146.77;100.00
55410;BME280;41279;43.546;16.426;2023-03-21T10:12:54;90498.34;;;-146.77;100.00
55410;BME280;41279;43.546;16.426;2023-03-21T10:15:23;87136.47;;;-146.77;100.00
55410;BME280;41279;43.546;16.426;2023-03-21T10:18:04;86619.50;;;-146.77;100.00
55410;BME280;41279;43.546;16.426;2023-03-21T10:20:33;83777.38;;;-146.77;100.00
55410;BME280;41279;43.546;16.426;2023-03-21T10:23:00;69102.28;;;-146.77;100.00
55410;BME280;41279;43.546;16.426;2023-03-21T10:25:31;62924.91;;;-146.77;100.00
55410;BME280;41279;43.546;16.426;2023-03-21T10:27:58;57113.88;;;-146.77;100.00
55410;BME280;41279;43.546;16.426;2023-03-21T10:30:29;55442.56;;;-146.77;100.00
55410;BME280;41279;43.546;16.426;2023-03-21T10:32:58;55837.28;;;-146.77;100.00
55410;BME280;41279;43.546;16.426;2023-03-21T10:35:29;57983.88;;;-146.77;100.00
55410;BME280;41279;43.546;16.426;2023-03-21T10:38:01;59969.19;;;-146.77;100.00
55410;BME280;41279;43.546;16.426;2023-03-21T10:40:27;58761.84;;;-146.77;100.00
55410;BME280;41279;43.546;16.426;2023-03-21T10:42:56;55875.34;;;-146.77;100.00
55410;BME280;41279;43.546;16.426;2023-03-21T10:45:22;54204.53;;;-146.77;100.00
55410;BME280;41279;43.546;16.426;2023-03-21T10:47:49;54557.06;;;-146.77;100.00
55410;BME280;41279;43.546;16.426;2023-03-21T10:50:19;54226.56;;;-146.77;100.00
55410;BME280;41279;43.546;16.426;2023-03-21T10:52:51;55863.31;;;-146.77;100.00
55410;BME280;41279;43.546;16.426;2023-03-21T10:55:29;53920.13;;;-146.77;100.00
55410;BME280;41279;43.546;16.426;2023-03-21T10:58:02;56735.06;;;-146.77;100.00
55410;BME280;41279;43.546;16.426;2023-03-21T11:00:41;53930.16;;;-146.77;100.00
55410;BME280;41279;43.546;16.426;2023-03-21T11:03:36;54024.28;;;-146.77;100.00
55410;BME280;41279;43.546;16.426;2023-03-21T11:06:16;54042.31;;;-146.77;100.00
55410;BME280;41279;43.546;16.426;2023-03-21T11:08:54;54020.28;;;-146.77;100.00
55410;BME280;41279;43.546;16.426;2023-03-21T11:11:25;55781.16;;;-146.77;100.00
55410;BME280;41279;43.546;16.426;2023-03-21T11:14:02;55031.84;;;-146.77;100.00
55410;BME280;41279;43.546;16.426;2023-03-21T11:16:42;55240.19;;;-146.77;100.00
55410;BME280;41279;43.546;16.426;2023-03-21T11:19:37;55384.44;;;-146.77;100.00
55410;BME280;41279;43.546;16.426;2023-03-21T11:22:06;54402.84;;;-146.77;100.00
55410;BME280;41279;43.546;16.426;2023-03-21T11:24:33;55166.06;;;-146.77;100.00
55410;BME280;41279;43.546;16.426;2023-03-21T11:27:05;56594.78;;;-146.77;100.00
55410;BME280;41279;43.546;16.426;2023-03-21T11:29:38;55362.41;;;-146.77;100.00
55410;BME280;41279;43.546;16.426;2023-03-21T11:32:15;61734.72;;;-146.77;100.00
55410;BME280;41279;43.546;16.426;2023-03-21T11:37:59;108908.91;;;-146.77;100.00
55410;BME280;41279;43.546;16.426;2023-03-21T11:40:27;109688.66;;;-146.77;100.00
55410;BME280;41279;43.546;16.426;2023-03-21T11:42:59;98008.06;;;-146.77;100.00
55410;BME280;41279;43.546;16.426;2023-03-21T11:45:32;92050.94;;;-146.77;100.00
55410;BME280;41279;43.546;16.426;2023-03-21T11:48:00;103973.94;;;-146.77;100.00
55410;BME280;41279;43.546;16.426;2023-03-21T11:50:33;108129.31;;;-146.77;100.00
55410;BME280;41279;43.546;16.426;2023-03-21T11:58:31;113329.50;;;-146.77;100.00
55410;BME280;41279;43.546;16.426;2023-03-21T12:09:42;109168.81;;;-146.77;100.00
55410;BME280;41279;43.546;16.426;2023-03-21T12:15:05;101119.59;;;-146.77;100.00
55410;BME280;41279;43.546;16.426;2023-03-21T12:20:38;89722.28;;;-146.77;100.00
55410;BME280;41279;43.546;16.426;2023-03-21T12:23:14;89980.97;;;-146.77;100.00
55410;BME280;41279;43.546;16.426;2023-03-21T12:25:46;97489.69;;;-146.77;100.00
55410;BME280;41279;43.546;16.426;2023-03-21T12:31:34;77067.63;;;-146.77;100.00
55410;BME280;41279;43.546;16.426;2023-03-21T12:39:39;84035.69;;;-146.77;100.00
55410;BME280;41279;43.546;16.426;2023-03-21T12:42:31;67460.09;;;-146.77;100.00
55410;BME280;41279;43.546;16.426;2023-03-21T12:45:23;59002.50;;;-146.77;100.00
55410;BME280;41279;43.546;16.426;2023-03-21T12:48:00;56234.03;;;-146.77;100.00
55410;BME280;41279;43.546;16.426;2023-03-21T12:50:32;52876.81;;;-146.77;100.00
55410;BME280;41279;43.546;16.426;2023-03-21T12:53:29;52696.63;;;-146.77;100.00
55410;BME280;41279;43.546;16.426;2023-03-21T12:56:02;52700.63;;;-146.77;100.00
55410;BME280;41279;43.546;16.426;2023-03-21T12:58:30;52668.59;;;-146.77;100.00
55410;BME280;41279;43.546;16.426;2023-03-21T13:01:08;52678.59;;;-146.77;100.00
55410;BME280;41279;43.546;16.426;2023-03-21T13:03:40;52646.56;;;-146.77;100.00
55410;BME280;41279;43.546;16.426;2023-03-21T13:06:12;52648.56;;;-146.77;100.00
55410;BME280;41279;43.546;16.426;2023-03-21T13:08:55;52636.56;;;-146.77;100.00
55410;BME280;41279;43.546;16.426;2023-03-21T13:11:25;52688.59;;;-146.77;100.00
55410;BME280;41279;43.546;16.426;2023-03-21T13:16:35;53417.47;;;-146.77;100.00
55410;BME280;41279;43.546;16.426;2023-03-21T13:24:49;53972.22;;;-146.77;100.00
55410;BME280;41279;43.546;16.426;2023-03-21T13:27:29;54370.78;;;-146.77;100.00
55410;BME280;41279;43.546;16.426;2023-03-21T13:30:00;56392.34;;;-146.77;100.00
55410;BME280;41279;43.546;16.426;2023-03-21T13:32:37;55951.50;;;-146.77;100.00
55410;BME280;41279;43.546;16.426;2023-03-21T13:37:43;54919.66;;;-146.77;100.00
55410;BME280;41279;43.546;16.426;2023-03-21T13:40:25;53920.13;;;-146.77;100.00
55410;BME280;41279;43.546;16.426;2023-03-21T13:43:02;53463.53;;;-146.77;100.00
55410;BME280;41279;43.546;16.426;2023-03-21T13:45:43;57067.78;;;-146.77;100.00
55410;BME280;41279;43.546;16.426;2023-03-21T13:48:29;58870.13;;;-146.77;100.00
55410;BME280;41279;43.546;16.426;2023-03-21T13:51:03;61275.22;;;-146.77;100.00
55410;BME280;41279;43.546;16.426;2023-03-21T13:53:39;64113.44;;;-146.77;100.00
55410;BME280;41279;43.546;16.426;2023-03-21T14:01:35;53549.63;;;-146.77;100.00
55410;BME280;41279;43.546;16.426;2023-03-21T14:04:20;53265.28;;;-146.77;100.00
55410;BME280;41279;43.546;16.426;2023-03-21T14:06:57;54122.41;;;-146.77;100.00
55410;BME280;41279;43.546;16.426;2023-03-21T14:11:53;53287.31;;;-146.77;100.00
55410;BME280;41279;43.546;16.426;2023-03-21T14:14:21;53551.63;;;-146.77;100.00
55410;BME280;41279;43.546;16.426;2023-03-21T14:16:51;54448.91;;;-146.77;100.00
55410;BME280;41279;43.546;16.426;2023-03-21T14:19:17;54434.88;;;-146.77;100.00
55410;BME280;41279;43.546;16.426;2023-03-21T14:21:48;55803.22;;;-146.77;100.00
55410;BME280;41279;43.546;16.426;2023-03-21T14:24:16;53888.09;;;-146.77;100.00
55410;BME280;41279;43.546;16.426;2023-03-21T14:26:46;53475.53;;;-146.77;100.00
55410;BME280;41279;43.546;16.426;2023-03-21T14:29:33;53683.81;;;-146.77;100.00
55410;BME280;41279;43.546;16.426;2023-03-21T14:32:00;55400.47;;;-146.77;100.00
55410;BME280;41279;43.546;16.426;2023-03-21T14:34:28;54302.69;;;-146.77;100.00
55410;BME280;41279;43.546;16.426;2023-03-21T14:36:56;53799.97;;;-146.77;100.00
55410;BME280;41279;43.546;16.426;2023-03-21T14:39:25;53797.97;;;-146.77;100.00
55410;BME280;41279;43.546;16.426;2023-03-21T14:41:54;53854.03;;;-146.77;100.00
55410;BME280;41279;43.546;16.426;2023-03-21T14:44:25;53779.94;;;-146.77;100.00
55410;BME280;41279;43.546;16.426;2023-03-21T14:49:26;54855.56;;;-146.77;100.00
55410;BME280;41279;43.546;16.426;2023-03-21T14:51:54;55883.38;;;-146.77;100.00
55410;BME280;41279;43.546;16.426;2023-03-21T14:54:21;56476.53;;;-146.77;100.00
55410;BME280;41279;43.546;16.426;2023-03-21T14:57:04;57807.47;;;-146.77;100.00
55410;BME280;41279;43.546;16.426;2023-03-21T14:59:34;56993.63;;;-146.77;100.00
55410;BME280;41279;43.546;16.426;2023-03-21T15:02:03;56697.00;;;-146.77;100.00
55410;BME280;41279;43.546;16.426;2023-03-21T15:04:30;58248.53;;;-146.77;100.00
55410;BME280;41279;43.546;16.426;2023-03-21T15:07:01;63398.69;;;-146.77;100.00
55410;BME280;41279;43.546;16.426;2023-03-21T15:09:31;63780.13;;;-146.77;100.00
55410;BME280;41279;43.546;16.426;2023-03-21T15:11:59;63774.13;;;-146.77;100.00
55410;BME280;41279;43.546;16.426;2023-03-21T15:14:28;72944.13;;;-146.77;100.00
55410;BME280;41279;43.546;16.426;2023-03-21T15:16:55;75520.81;;;-146.77;100.00
55410;BME280;41279;43.546;16.426;2023-03-21T15:19:31;66979.81;;;-146.77;100.00
55410;BME280;41279;43.546;16.426;2023-03-21T15:22:11;75005.34;;;-146.77;100.00
55410;BME280;41279;43.546;16.426;2023-03-21T15:24:41;85844.19;;;-146.77;100.00
55410;BME280;41279;43.546;16.426;2023-03-21T15:27:16;90239.66;;;-146.77;100.00
55410;BME280;41279;43.546;16.426;2023-03-21T15:29:43;100600.84;;;-146.77;100.00
55410;BME280;41279;43.546;16.426;2023-03-21T15:32:18;106830.31;;;-146.77;100.00
55410;BME280;41279;43.546;16.426;2023-03-21T15:34:45;98526.47;;;-146.77;100.00
55410;BME280;41279;43.546;16.426;2023-03-21T15:37:16;98008.06;;;-146.77;100.00
55410;BME280;41279;43.546;16.426;2023-03-21T15:39:43;89980.97;;;-146.77;100.00
55410;BME280;41279;43.546;16.426;2023-03-21T15:42:26;87912.03;;;-146.77;100.00
55410;BME280;41279;43.546;16.426;2023-03-21T15:44:55;88687.75;;;-146.77;100.00
55410;BME280;41279;43.546;16.426;2023-03-21T15:52:51;91015.81;;;-146.77;100.00
55410;BME280;41279;43.546;16.426;2023-03-21T15:55:49;94639.91;;;-146.77;100.00
55410;BME280;41279;43.546;16.426;2023-03-21T15:58:22;95416.94;;;-146.77;100.00
55410;BME280;41279;43.546;16.426;2023-03-21T16:01:04;93345.22;;;-146.77;100.00
55410;BME280;41279;43.546;16.426;2023-03-21T16:03:34;94380.94;;;-146.77;100.00
55410;BME280;41279;43.546;16.426;2023-03-21T16:08:49;100600.84;;;-146.77;100.00
55410;BME280;41279;43.546;16.426;2023-03-21T16:13:44;105531.72;;;-146.77;100.00
55410;BME280;41279;43.546;16.426;2023-03-21T16:16:15;102157.31;;;-146.77;100.00
55410;BME280;41279;43.546;16.426;2023-03-21T16:18:42;98267.25;;;-146.77;100.00
55410;BME280;41279;43.546;16.426;2023-03-21T16:21:11;99822.84;;;-146.77;100.00
55410;BME280;41279;43.546;16.426;2023-03-21T16:23:37;101638.44;;;-146.77;100.00
55410;BME280;41279;43.546;16.426;2023-03-21T16:26:03;99304.25;;;-146.77;100.00
55410;BME280;41279;43.546;16.426;2023-03-21T16:28:29;96971.41;;;-146.77;100.00
55410;BME280;41279;43.546;16.426;2023-03-21T16:30:55;98785.72;;;-146.77;100.00
55410;BME280;41279;43.546;16.426;2023-03-21T16:33:21;97489.69;;;-146.77;100.00
55410;BME280;41279;43.546;16.426;2023-03-21T16:35:46;108908.91;;;-146.77;100.00
55410;BME280;41279;43.546;16.426;2023-03-21T16:38:12;112288.94;;;-146.77;100.00
55410;BME280;41279;43.546;16.426;2023-03-21T16:40:39;112028.81;;;-146.77;100.00
55410;BME280;41279;43.546;16.426;2023-03-21T16:43:06;112028.81;;;-146.77;100.00
55410;BME280;41279;43.546;16.426;2023-03-21T16:45:32;112809.19;;;-146.77;100.00
55410;BME280;41279;43.546;16.426;2023-03-21T16:47:58;114890.84;;;-146.77;100.00
55410;BME280;41279;43.546;16.426;2023-03-21T16:50:27;115151.13;;;-146.77;100.00
55410;BME280;41279;43.546;16.426;2023-03-21T16:52:54;115151.13;;;-146.77;100.00
55410;BME280;41279;43.546;16.426;2023-03-21T16:55:21;112549.03;;;-146.77;100.00
55410;BME280;41279;43.546;16.426;2023-03-21T16:57:48;112028.81;;;-146.77;100.00
55410;BME280;41279;43.546;16.426;2023-03-21T17:00:16;111248.63;;;-146.77;100.00
55410;BME280;41279;43.546;16.426;2023-03-21T17:02:49;110468.56;;;-146.77;100.00
55410;BME280;41279;43.546;16.426;2023-03-21T17:05:16;111768.75;;;-146.77;100.00
55410;BME280;41279;43.546;16.426;2023-03-21T17:07:42;111768.75;;;-146.77;100.00
55410;BME280;41279;43.546;16.426;2023-03-21T17:10:17;113589.66;;;-146.77;100.00
55410;BME280;41279;43.546;16.426;2023-03-21T17:12:43;114630.56;;;-146.77;100.00
55410;BME280;41279;43.546;16.426;2023-03-21T17:15:09;115671.72;;;-146.77;100.00
55410;BME280;41279;43.546;16.426;2023-03-21T17:17:35;116713.16;;;-146.77;100.00
55410;BME280;41279;43.546;16.426;2023-03-21T17:20:05;116973.56;;;-146.77;100.00
55410;BME280;41279;43.546;16.426;2023-03-21T17:22:35;116973.56;;;-146.77;100.00
55410;BME280;41279;43.546;16.426;2023-03-21T17:25:01;116973.56;;;-146.77;100.00
55410;BME280;41279;43.546;16.426;2023-03-21T17:27:27;116973.56;;;-146.77;100.00
55410;BME280;41279;43.546;16.426;2023-03-21T17:29:52;116973.56;;;-146.77;100.00
55410;BME280;41279;43.546;16.426;2023-03-21T17:32:18;117233.97;;;-146.77;100.00
55410;BME280;41279;43.546;16.426;2023-03-21T17:34:43;117236.00;;;-146.77;100.00
55410;BME280;41279;43.546;16.426;2023-03-21T17:37:09;117236.00;;;-146.77;100.00
55410;BME280;41279;43.546;16.426;2023-03-21T17:39:35;117236.00;;;-146.77;100.00
55410;BME280;41279;43.546;16.426;2023-03-21T17:42:00;117236.00;;;-146.77;100.00
55410;BME280;41279;43.546;16.426;2023-03-21T17:44:26;117236.00;;;-146.77;100.00
55410;BME280;41279;43.546;16.426;2023-03-21T17:46:52;117236.00;;;-146.77;100.00
55410;BME280;41279;43.546;16.426;2023-03-21T17:49:17;117236.00;;;-146.77;100.00
55410;BME280;41279;43.546;16.426;2023-03-21T17:51:44;117236.00;;;-146.77;100.00
55410;BME280;41279;43.546;16.426;2023-03-21T17:54:11;117236.00;;;-146.77;100.00
55410;BME280;41279;43.546;16.426;2023-03-21T17:56:36;117236.00;;;-146.77;100.00
55410;BME280;41279;43.546;16.426;2023-03-21T17:59:07;117236.00;;;-146.77;100.00
55410;BME280;41279;43.546;16.426;2023-03-21T18:01:34;117236.00;;;-146.77;100.00
55410;BME280;41279;43.546;16.426;2023-03-21T18:04:00;117236.00;;;-146.77;100.00
55410;BME280;41279;43.546;16.426;2023-03-21T18:06:30;117236.00;;;-146.77;100.00
55410;BME280;41279;43.546;16.426;2023-03-21T18:08:56;117236.00;;;-146.77;100.00
55410;BME280;41279;43.546;16.426;2023-03-21T18:11:22;117236.00;;;-146.77;100.00
55410;BME280;41279;43.546;16.426;2023-03-21T18:13:48;117236.00;;;-146.77;100.00
55410;BME280;41279;43.546;16.426;2023-03-21T18:16:19;117236.00;;;-146.77;100.00
55410;BME280;41279;43.546;16.426;2023-03-21T18:18:45;117236.00;;;-146.77;100.00
55410;BME280;41279;43.546;16.426;2023-03-21T18:21:12;117236.00;;;-146.77;100.00
55410;BME280;41279;43.546;16.426;2023-03-21T18:23:38;117236.00;;;-146.77;100.00
55410;BME280;41279;43.546;16.426;2023-03-21T18:26:05;117236.00;;;-146.77;100.00
55410;BME280;41279;43.546;16.426;2023-03-21T18:28:33;117236.00;;;-146.77;100.00
55410;BME280;41279;43.546;16.426;2023-03-21T18:30:59;117236.00;;;-146.77;100.00
55410;BME280;41279;43.546;16.426;2023-03-21T18:33:25;117236.00;;;-146.77;100.00
55410;BME280;41279;43.546;16.426;2023-03-21T18:35:51;117236.00;;;-146.77;100.00
55410;BME280;41279;43.546;16.426;2023-03-21T18:38:16;117236.00;;;-146.77;100.00
55410;BME280;41279;43.546;16.426;2023-03-21T18:40:42;117236.00;;;-146.77;100.00
55410;BME280;41279;43.546;16.426;2023-03-21T18:43:07;117236.00;;;-146.77;100.00
55410;BME280;41279;43.546;16.426;2023-03-21T18:45:33;117236.00;;;-146.77;100.00
55410;BME280;41279;43.546;16.426;2023-03-21T18:47:58;117236.00;;;-146.77;100.00
55410;BME280;41279;43.546;16.426;2023-03-21T18:50:24;117236.00;;;-146.77;100.00
55410;BME280;41279;43.546;16.426;2023-03-21T18:52:49;117236.00;;;-146.77;100.00
55410;BME280;41279;43.546;16.426;2023-03-21T18:55:15;117236.00;;;-146.77;100.00
55410;BME280;41279;43.546;16.426;2023-03-21T18:57:41;117236.00;;;-146.77;100.00
55410;BME280;41279;43.546;16.426;2023-03-21T19:00:13;117236.00;;;-146.77;100.00
55410;BME280;41279;43.546;16.426;2023-03-21T19:02:44;117236.00;;;-146.77;100.00
55410;BME280;41279;43.546;16.426;2023-03-21T19:05:10;117236.00;;;-146.77;100.00
55410;BME280;41279;43.546;16.426;2023-03-21T19:07:36;117236.00;;;-146.77;100.00
55410;BME280;41279;43.546;16.426;2023-03-21T19:10:02;117236.00;;;-146.77;100.00
55410;BME280;41279;43.546;16.426;2023-03-21T19:12:28;117236.00;;;-146.77;100.00
55410;BME280;41279;43.546;16.426;2023-03-21T19:14:54;117236.00;;;-146.77;100.00
55410;BME280;41279;43.546;16.426;2023-03-21T19:17:20;117236.00;;;-146.77;100.00
55410;BME280;41279;43.546;16.426;2023-03-21T19:19:46;117236.00;;;-146.77;100.00
55410;BME280;41279;43.546;16.426;2023-03-21T19:22:12;117236.00;;;-146.77;100.00
55410;BME280;41279;43.546;16.426;2023-03-21T19:24:37;117236.00;;;-146.77;100.00
55410;BME280;41279;43.546;16.426;2023-03-21T19:27:04;117236.00;;;-146.77;100.00
55410;BME280;41279;43.546;16.426;2023-03-21T19:29:30;117236.00;;;-146.77;100.00
55410;BME280;41279;43.546;16.426;2023-03-21T19:31:55;117236.00;;;-146.77;100.00
55410;BME280;41279;43.546;16.426;2023-03-21T19:34:21;117236.00;;;-146.77;100.00
55410;BME280;41279;43.546;16.426;2023-03-21T19:36:46;117236.00;;;-146.77;100.00
55410;BME280;41279;43.546;16.426;2023-03-21T19:39:12;117236.00;;;-146.77;100.00
55410;BME280;41279;43.546;16.426;2023-03-21T19:41:37;117236.00;;;-146.77;100.00
55410;BME280;41279;43.546;16.426;2023-03-21T19:44:04;117236.00;;;-146.77;100.00
55410;BME280;41279;43.546;16.426;2023-03-21T19:46:30;117236.00;;;-146.77;100.00
55410;BME280;41279;43.546;16.426;2023-03-21T19:48:55;117236.00;;;-146.77;100.00
55410;BME280;41279;43.546;16.426;2023-03-21T19:51:21;117236.00;;;-146.77;100.00
55410;BME280;41279;43.546;16.426;2023-03-21T19:53:48;117236.00;;;-146.77;100.00
55410;BME280;41279;43.546;16.426;2023-03-21T19:56:13;117236.00;;;-146.77;100.00
55410;BME280;41279;43.546;16.426;2023-03-21T19:58:40;117236.00;;;-146.77;100.00
55410;BME280;41279;43.546;16.426;2023-03-21T20:01:06;117236.00;;;-146.77;100.00
55410;BME280;41279;43.546;16.426;2023-03-21T20:03:32;117236.00;;;-146.77;100.00
55410;BME280;41279;43.546;16.426;2023-03-21T20:06:03;117236.00;;;-146.77;100.00
55410;BME280;41279;43.546;16.426;2023-03-21T20:08:28;117236.00;;;-146.77;100.00
55410;BME280;41279;43.546;16.426;2023-03-21T20:10:54;117236.00;;;-146.77;100.00
55410;BME280;41279;43.546;16.426;2023-03-21T20:13:19;117236.00;;;-146.77;100.00
55410;BME280;41279;43.546;16.426;2023-03-21T20:15:51;117236.00;;;-146.77;100.00
55410;BME280;41279;43.546;16.426;2023-03-21T20:18:17;117236.00;;;-146.77;100.00
55410;BME280;41279;43.546;16.426;2023-03-21T20:20:45;117236.00;;;-146.77;100.00
55410;BME280;41279;43.546;16.426;2023-03-21T20:23:10;117236.00;;;-146.77;100.00
55410;BME280;41279;43.546;16.426;2023-03-21T20:25:40;117236.00;;;-146.77;100.00
55410;BME280;41279;43.546;16.426;2023-03-21T20:28:05;117236.00;;;-146.77;100.00
55410;BME280;41279;43.546;16.426;2023-03-21T20:30:31;117236.00;;;-146.77;100.00
55410;BME280;41279;43.546;16.426;2023-03-21T20:32:57;117236.00;;;-146.77;100.00
55410;BME280;41279;43.546;16.426;2023-03-21T20:35:22;117236.00;;;-146.77;100.00